Dragonera — 9HA2475 — position and weather

sailwx.info

Track history (hours):
 
Tides and Currents Weather Stations Pressure Air Temp Water Temp Dewpoint Dewpoint Depression Visibility Wind Speed Wind Dir Waves Ship Positions

Dragonera

Last reported at 2014-Sep-19 23:33 UTC. Time now 2014-Sep-19 23:51 UTC.
Position N 56°38' E 011°53'.

Length 180 m; draft 6.5 m.

Type: Cargo ship. MMSI: 248698000.

Date/timePositionNaut miles runAvg speedWind from/ knotsBaromVisibWave heightAir tempDewpointWater temp
2014-Sep-19 23:33N 56°38' E 011°53'1312.6
2014-Sep-19 22:32N 56°50' E 011°49'1212.6
2014-Sep-19 21:33N 57°02' E 011°41'1212.3
2014-Sep-19 20:33N 57°14' E 011°33'1312.7
2014-Sep-19 19:33N 57°26' E 011°26'1212.4
2014-Sep-19 18:33N 57°35' E 011°10'1312.8
2014-Sep-19 17:33N 57°43' E 010°53'1111.3
2014-Sep-19 16:33N 57°47' E 010°33'10711.8
2014-Sep-19 07:28N 57°08' E 007°28'5213.2
2014-Sep-19 03:32N 56°17' E 007°13'2713.5
2014-Sep-19 01:33N 55°51' E 007°05'1413.5
2014-Sep-19 00:33N 55°37' E 007°01'5813.1
2014-Sep-18 20:06N 54°39' E 007°07'813.9
2014-Sep-18 19:33N 54°32' E 007°13'1413.9
2014-Sep-18 18:34N 54°20' E 007°23'1312.9
2014-Sep-18 17:33N 54°11' E 007°39'1313.1
2014-Sep-18 16:34N 54°04' E 007°58'1212.0
2014-Sep-18 15:34N 54°00' E 008°17'1212.5
2014-Sep-18 14:34N 53°57' E 008°38'1312.9
2014-Sep-18 13:33N 53°51' E 008°57'9 0.6
2014-Sep-18 00:13N 53°53' E 009°11'0 0.0
2014-Sep-17 20:04N 53°53' E 009°11'0 0.0
2014-Sep-17 19:31N 53°53' E 009°11'0 0.0
2014-Sep-17 14:19N 53°53' E 009°11'0 0.0
2014-Sep-17 13:13N 53°53' E 009°11'0 0.0
2014-Sep-17 11:19N 53°53' E 009°11'0 0.0
2014-Sep-17 10:31N 53°53' E 009°11'0 0.0
2014-Sep-17 08:04N 53°53' E 009°11'0 0.0
2014-Sep-17 07:28N 53°53' E 009°11'0 0.0
2014-Sep-17 06:28N 53°53' E 009°11'0 0.0
2014-Sep-17 05:22N 53°53' E 009°11'0 0.0
2014-Sep-17 04:25N 53°53' E 009°11'0 0.0
2014-Sep-17 03:31N 53°53' E 009°11'0 0.0
2014-Sep-17 02:31N 53°53' E 009°11'0 0.0
2014-Sep-17 01:31N 53°53' E 009°11'0 0.0
2014-Sep-17 00:28N 53°53' E 009°11'0 0.0
2014-Sep-16 23:31N 53°53' E 009°11'0 0.0
2014-Sep-16 22:31N 53°53' E 009°11'0 0.0
2014-Sep-16 21:31N 53°53' E 009°11'0 0.0
2014-Sep-16 20:31N 53°53' E 009°11'0 0.0
2014-Sep-16 19:31N 53°53' E 009°11'0 0.0
2014-Sep-16 18:31N 53°53' E 009°11'0 0.0
2014-Sep-16 17:31N 53°53' E 009°11'0 0.0
2014-Sep-16 16:31N 53°53' E 009°11'0 0.0
2014-Sep-16 15:25N 53°53' E 009°11'0 0.0
2014-Sep-16 14:31N 53°53' E 009°11'0 0.0
2014-Sep-16 13:31N 53°53' E 009°11'0 0.0
2014-Sep-16 12:31N 53°53' E 009°11'0 0.0
2014-Sep-16 11:28N 53°53' E 009°11'0 0.0
2014-Sep-16 10:31N 53°53' E 009°11'0 0.0
2014-Sep-16 09:31N 53°53' E 009°11'0 0.2
2014-Sep-16 08:33N 53°53' E 009°10'8 7.7
2014-Sep-16 07:33N 53°51' E 008°58'1010.1
2014-Sep-16 06:33N 53°54' E 008°42'1110.9
2014-Sep-16 05:33N 53°59' E 008°25'1110.8
2014-Sep-16 04:33N 53°59' E 008°07'3 3.3
2014-Sep-16 03:33N 54°02' E 008°10'0 0.1
2014-Sep-16 02:30N 54°02' E 008°10'0 0.1
2014-Sep-16 01:33N 54°02' E 008°10'0 0.1
2014-Sep-16 00:30N 54°02' E 008°10'0 0.0
2014-Sep-15 23:33N 54°02' E 008°10'0 0.0
2014-Sep-15 22:33N 54°02' E 008°10'0 0.0
2014-Sep-15 21:30N 54°02' E 008°10'0 0.0
2014-Sep-15 20:33N 54°02' E 008°10'0 0.0
2014-Sep-15 19:33N 54°02' E 008°10'0 0.0
2014-Sep-15 18:30N 54°02' E 008°10'0 0.3
2014-Sep-15 17:33N 54°02' E 008°09'4 4.3
2014-Sep-15 16:33N 54°01' E 008°02'10 9.5
2014-Sep-15 15:33N 53°57' E 007°48'6613.2
2014-Sep-15 10:33N 53°41' E 005°60'1313.2
2014-Sep-15 09:34N 53°36' E 005°39'1313.4
2014-Sep-15 08:33N 53°32' E 005°17'1312.8
2014-Sep-15 07:33N 53°28' E 004°57'1211.5
2014-Sep-15 06:33N 53°22' E 004°41'3511.5
2014-Sep-15 03:32N 52°51' E 004°14'3410.8
2014-Sep-15 00:23N 52°27' E 003°34'6011.7
2014-Sep-14 19:12N 51°42' E 002°29'812.9
2014-Sep-14 18:33N 51°35' E 002°20'1512.9
2014-Sep-14 17:23N 51°22' E 002°09'1012.5
2014-Sep-14 16:33N 51°13' E 002°01'1413.7
2014-Sep-14 15:33N 51°06' E 001°42'1413.7
2014-Sep-14 14:33N 50°56' E 001°27'3611.9
2014-Sep-14 11:33N 50°28' E 000°51'1312.7
2014-Sep-14 10:33N 50°26' E 000°32'1312.0
2014-Sep-14 09:27N 50°22' E 000°12'28611.0
2014-Sep-13 07:25N 48°03' W 006°11'1512.6
2014-Sep-13 06:14N 47°50' W 006°20'1213.0
2014-Sep-13 05:17N 47°39' W 006°28'1012.8
2014-Sep-13 04:32N 47°31' W 006°36'  
2014-Sep-10 19:33N 36°44' W 008°42'1211.7
2014-Sep-10 18:31N 36°45' W 008°27'1111.0
2014-Sep-10 17:33N 36°47' W 008°14'1111.4
2014-Sep-10 16:33N 36°48' W 007°59'  
Track history (hours):
 
Tides and Currents Weather Stations Pressure Air Temp Water Temp Dewpoint Dewpoint Depression Visibility Wind Speed Wind Dir Waves Ship Positions

Dragonera

Last reported at 2014-Sep-19 23:33 UTC. Time now 2014-Sep-19 23:51 UTC.
Position N 56°38' E 011°53'.

Length 180 m; draft 6.5 m.

Type: Cargo ship. MMSI: 248698000.

Date/timePositionNaut miles runAvg speedWind from/ knotsBaromVisibWave heightAir tempDewpointWater temp
2014-Sep-19 23:33N 56°38' E 011°53'1312.6
2014-Sep-19 22:32N 56°50' E 011°49'1212.6
2014-Sep-19 21:33N 57°02' E 011°41'1212.3
2014-Sep-19 20:33N 57°14' E 011°33'1312.7
2014-Sep-19 19:33N 57°26' E 011°26'1212.4
2014-Sep-19 18:33N 57°35' E 011°10'1312.8
2014-Sep-19 17:33N 57°43' E 010°53'1111.3
2014-Sep-19 16:33N 57°47' E 010°33'10711.8
2014-Sep-19 07:28N 57°08' E 007°28'5213.2
2014-Sep-19 03:32N 56°17' E 007°13'2713.5
2014-Sep-19 01:33N 55°51' E 007°05'1413.5
2014-Sep-19 00:33N 55°37' E 007°01'5813.1
2014-Sep-18 20:06N 54°39' E 007°07'813.9
2014-Sep-18 19:33N 54°32' E 007°13'1413.9
2014-Sep-18 18:34N 54°20' E 007°23'1312.9
2014-Sep-18 17:33N 54°11' E 007°39'1313.1
2014-Sep-18 16:34N 54°04' E 007°58'1212.0
2014-Sep-18 15:34N 54°00' E 008°17'1212.5
2014-Sep-18 14:34N 53°57' E 008°38'1312.9
2014-Sep-18 13:33N 53°51' E 008°57'9 0.6
2014-Sep-18 00:13N 53°53' E 009°11'0 0.0
2014-Sep-17 20:04N 53°53' E 009°11'0 0.0
2014-Sep-17 19:31N 53°53' E 009°11'0 0.0
2014-Sep-17 14:19N 53°53' E 009°11'0 0.0
2014-Sep-17 13:13N 53°53' E 009°11'0 0.0
2014-Sep-17 11:19N 53°53' E 009°11'0 0.0
2014-Sep-17 10:31N 53°53' E 009°11'0 0.0
2014-Sep-17 08:04N 53°53' E 009°11'0 0.0
2014-Sep-17 07:28N 53°53' E 009°11'0 0.0
2014-Sep-17 06:28N 53°53' E 009°11'0 0.0
2014-Sep-17 05:22N 53°53' E 009°11'0 0.0
2014-Sep-17 04:25N 53°53' E 009°11'0 0.0
2014-Sep-17 03:31N 53°53' E 009°11'0 0.0
2014-Sep-17 02:31N 53°53' E 009°11'0 0.0
2014-Sep-17 01:31N 53°53' E 009°11'0 0.0
2014-Sep-17 00:28N 53°53' E 009°11'0 0.0
2014-Sep-16 23:31N 53°53' E 009°11'0 0.0
2014-Sep-16 22:31N 53°53' E 009°11'0 0.0
2014-Sep-16 21:31N 53°53' E 009°11'0 0.0
2014-Sep-16 20:31N 53°53' E 009°11'0 0.0
2014-Sep-16 19:31N 53°53' E 009°11'0 0.0
2014-Sep-16 18:31N 53°53' E 009°11'0 0.0
2014-Sep-16 17:31N 53°53' E 009°11'0 0.0
2014-Sep-16 16:31N 53°53' E 009°11'0 0.0
2014-Sep-16 15:25N 53°53' E 009°11'0 0.0
2014-Sep-16 14:31N 53°53' E 009°11'0 0.0
2014-Sep-16 13:31N 53°53' E 009°11'0 0.0
2014-Sep-16 12:31N 53°53' E 009°11'0 0.0
2014-Sep-16 11:28N 53°53' E 009°11'0 0.0
2014-Sep-16 10:31N 53°53' E 009°11'0 0.0
2014-Sep-16 09:31N 53°53' E 009°11'0 0.2
2014-Sep-16 08:33N 53°53' E 009°10'8 7.7
2014-Sep-16 07:33N 53°51' E 008°58'1010.1
2014-Sep-16 06:33N 53°54' E 008°42'1110.9
2014-Sep-16 05:33N 53°59' E 008°25'1110.8
2014-Sep-16 04:33N 53°59' E 008°07'3 3.3
2014-Sep-16 03:33N 54°02' E 008°10'0 0.1
2014-Sep-16 02:30N 54°02' E 008°10'0 0.1
2014-Sep-16 01:33N 54°02' E 008°10'0 0.1
2014-Sep-16 00:30N 54°02' E 008°10'0 0.0
2014-Sep-15 23:33N 54°02' E 008°10'0 0.0
2014-Sep-15 22:33N 54°02' E 008°10'0 0.0
2014-Sep-15 21:30N 54°02' E 008°10'0 0.0
2014-Sep-15 20:33N 54°02' E 008°10'0 0.0
2014-Sep-15 19:33N 54°02' E 008°10'0 0.0
2014-Sep-15 18:30N 54°02' E 008°10'0 0.3
2014-Sep-15 17:33N 54°02' E 008°09'4 4.3
2014-Sep-15 16:33N 54°01' E 008°02'10 9.5
2014-Sep-15 15:33N 53°57' E 007°48'6613.2
2014-Sep-15 10:33N 53°41' E 005°60'1313.2
2014-Sep-15 09:34N 53°36' E 005°39'1313.4
2014-Sep-15 08:33N 53°32' E 005°17'1312.8
2014-Sep-15 07:33N 53°28' E 004°57'1211.5
2014-Sep-15 06:33N 53°22' E 004°41'3511.5
2014-Sep-15 03:32N 52°51' E 004°14'3410.8
2014-Sep-15 00:23N 52°27' E 003°34'6011.7
2014-Sep-14 19:12N 51°42' E 002°29'812.9
2014-Sep-14 18:33N 51°35' E 002°20'1512.9
2014-Sep-14 17:23N 51°22' E 002°09'1012.5
2014-Sep-14 16:33N 51°13' E 002°01'1413.7
2014-Sep-14 15:33N 51°06' E 001°42'1413.7
2014-Sep-14 14:33N 50°56' E 001°27'3611.9
2014-Sep-14 11:33N 50°28' E 000°51'1312.7
2014-Sep-14 10:33N 50°26' E 000°32'1312.0
2014-Sep-14 09:27N 50°22' E 000°12'28611.0
2014-Sep-13 07:25N 48°03' W 006°11'1512.6
2014-Sep-13 06:14N 47°50' W 006°20'1213.0
2014-Sep-13 05:17N 47°39' W 006°28'1012.8
2014-Sep-13 04:32N 47°31' W 006°36'  
2014-Sep-10 19:33N 36°44' W 008°42'1211.7
2014-Sep-10 18:31N 36°45' W 008°27'1111.0
2014-Sep-10 17:33N 36°47' W 008°14'1111.4
2014-Sep-10 16:33N 36°48' W 007°59'  

Dump ship's entire track history